Time;durP1;ratioP1;P1;durP2;ratioP2;P2;SDS_P1;SDS_P2;PMS_P1;PMS_P2;Temp;Humidity;BMP_temperature;BMP_pressure;BME280_temperature;BME280_humidity;BME280_pressure;Samples;Min_cycle;Max_cycle;Signal;HPM_P1;HPM_P2
2022/11/28 00:03:06;;;;;;;12.10;7.27;;;;;;;4.81;100.00;97581.81;18301192;32;20109;-63
2022/11/28 00:13:09;;;;;;;13.13;8.30;;;;;;;4.69;100.00;97577.28;18300663;32;20158;-63
2022/11/28 00:23:11;;;;;;;11.97;7.77;;;;;;;4.64;100.00;97579.84;18300312;32;20058;-63
2022/11/28 00:33:14;;;;;;;12.67;7.20;;;;;;;4.49;100.00;97576.81;18299819;32;20058;-63
2022/11/28 00:43:16;;;;;;;8.43;6.37;;;;;;;4.34;100.00;97572.72;18299174;32;20069;-63
2022/11/28 00:53:18;;;;;;;9.07;6.07;;;;;;;4.20;100.00;97587.41;18284741;32;20066;-63
2022/11/28 01:03:21;;;;;;;8.57;5.77;;;;;;;4.06;100.00;97600.19;18298009;32;20055;-63
2022/11/28 01:13:23;;;;;;;9.23;5.73;;;;;;;3.94;100.00;97594.78;18298237;32;20058;-63
2022/11/28 01:23:26;;;;;;;8.27;5.50;;;;;;;3.89;100.00;97600.00;18283621;32;20355;-63
2022/11/28 01:33:28;;;;;;;9.07;5.77;;;;;;;3.83;100.00;97582.19;18296931;32;20149;-63
2022/11/28 01:43:31;;;;;;;10.80;6.33;;;;;;;3.81;100.00;97581.59;18296491;32;20054;-63
2022/11/28 01:53:39;;;;;;;7.93;6.30;;;;;;;3.82;100.00;97577.91;18281921;32;20109;-63
2022/11/28 02:03:47;;;;;;;10.60;6.17;;;;;;;3.72;100.00;97557.88;18269584;32;20500;-63
2022/11/28 02:14:05;;;;;;;12.47;6.83;;;;;;;3.64;100.00;97544.81;18295015;32;20335;-63
2022/11/28 02:24:39;;;;;;;8.80;6.23;;;;;;;3.53;100.00;97546.41;18294492;32;20074;-63
2022/11/28 02:34:56;;;;;;;10.50;6.90;;;;;;;3.44;100.00;97522.91;18294438;32;20513;-63
2022/11/28 02:45:09;;;;;;;11.03;7.73;;;;;;;3.36;100.00;97514.16;18293795;32;20091;-64
2022/11/28 02:55:13;;;;;;;10.83;7.70;;;;;;;3.29;100.00;97501.94;18293480;32;20480;-63
2022/11/28 03:05:24;;;;;;;9.07;6.93;;;;;;;3.15;100.00;97487.94;18293128;32;20118;-63
2022/11/28 03:15:47;;;;;;;7.73;6.40;;;;;;;3.04;100.00;97492.19;18293053;32;20097;-63
2022/11/28 03:26:23;;;;;;;10.83;6.80;;;;;;;2.92;100.00;97488.66;18283247;32;20493;-63
2022/11/28 03:36:37;;;;;;;9.30;6.80;;;;;;;2.81;100.00;97482.22;18302844;32;20066;-63
2022/11/28 03:46:45;;;;;;;9.83;6.97;;;;;;;2.70;100.00;97481.94;18288752;32;20085;-63
2022/11/28 03:57:02;;;;;;;12.60;7.80;;;;;;;2.67;100.00;97471.72;18301542;32;20361;-63
2022/11/28 04:07:33;;;;;;;10.40;6.97;;;;;;;2.68;100.00;97473.34;18287333;32;20110;-63
2022/11/28 04:17:45;;;;;;;12.13;8.00;;;;;;;2.73;100.00;97459.34;18300954;32;20102;-63
2022/11/28 04:28:02;;;;;;;10.20;7.07;;;;;;;2.75;100.00;97451.09;18286717;32;20116;-63
2022/11/28 04:38:06;;;;;;;12.93;7.57;;;;;;;2.74;100.00;97449.44;18285618;32;20422;-63
2022/11/28 04:48:09;;;;;;;11.47;7.23;;;;;;;2.69;100.00;97444.81;18299190;32;20120;-63
2022/11/28 04:58:42;;;;;;;10.73;7.20;;;;;;;2.70;100.00;97433.09;18271989;32;20058;-63
2022/11/28 05:08:45;;;;;;;10.37;6.57;;;;;;;2.72;100.00;97437.12;18271088;32;20122;-63
2022/11/28 05:18:47;;;;;;;9.40;6.63;;;;;;;2.75;100.00;97448.41;18284210;32;20129;-63
2022/11/28 05:28:50;;;;;;;10.97;7.77;;;;;;;2.71;100.00;97435.53;18297128;32;20054;-63
2022/11/28 05:38:52;;;;;;;10.77;6.97;;;;;;;2.77;100.00;97438.31;18296720;32;20058;-63
2022/11/28 05:48:55;;;;;;;13.40;9.13;;;;;;;2.87;100.00;97435.94;18295533;32;20120;-63
2022/11/28 05:58:58;;;;;;;10.00;7.87;;;;;;;3.00;100.00;97433.09;18295215;32;20365;-63
2022/11/28 06:09:02;;;;;;;10.37;7.37;;;;;;;3.12;100.00;97437.66;18295547;32;20449;-63
2022/11/28 06:19:05;;;;;;;9.60;6.37;;;;;;;3.22;100.00;97432.56;18281330;32;20114;-64
2022/11/28 06:29:08;;;;;;;10.90;7.63;;;;;;;3.30;100.00;97437.59;18281047;32;20042;-63
2022/11/28 06:39:14;;;;;;;11.07;7.13;;;;;;;3.36;100.00;97430.53;18294483;32;20389;-63
2022/11/28 06:49:16;;;;;;;11.43;8.30;;;;;;;3.39;100.00;97436.19;18294000;32;20088;-63
2022/11/28 06:59:19;;;;;;;10.13;7.30;;;;;;;3.42;100.00;97450.16;18296063;32;20567;-63
2022/11/28 07:09:21;;;;;;;10.63;7.07;;;;;;;3.46;100.00;97454.00;18277814;32;20090;-63
2022/11/28 07:19:24;;;;;;;11.30;7.53;;;;;;;3.49;100.00;97459.69;18303742;32;20077;-63
2022/11/28 07:29:34;;;;;;;10.87;7.40;;;;;;;3.59;100.00;97471.69;18303072;32;20086;-63
2022/11/28 07:39:37;;;;;;;11.30;7.53;;;;;;;3.70;100.00;97474.38;18302722;32;20390;-63
2022/11/28 07:49:40;;;;;;;10.10;6.70;;;;;;;3.86;100.00;97480.09;18302135;32;20105;-63
2022/11/28 07:59:43;;;;;;;10.80;7.23;;;;;;;4.02;100.00;97483.97;18301116;32;20062;-63
2022/11/28 08:09:46;;;;;;;10.57;7.57;;;;;;;4.18;100.00;97474.41;18273490;32;20058;-63
2022/11/28 08:19:49;;;;;;;8.23;5.90;;;;;;;4.35;100.00;97475.31;18274265;32;20112;-63
2022/11/28 08:29:52;;;;;;;7.83;5.93;;;;;;;4.51;100.00;97472.97;18273511;32;20054;-63
2022/11/28 08:39:55;;;;;;;7.80;5.93;;;;;;;4.68;100.00;97460.47;18286087;32;20046;-63
2022/11/28 08:49:58;;;;;;;7.17;5.43;;;;;;;4.89;100.00;97463.56;18299198;32;20054;-63
2022/11/28 09:00:00;;;;;;;8.97;5.90;;;;;;;5.06;100.00;97460.97;18298412;32;20109;-63
2022/11/28 09:10:04;;;;;;;11.50;7.57;;;;;;;5.21;100.00;97465.78;18284405;32;20062;-63
2022/11/28 09:20:07;;;;;;;8.90;6.00;;;;;;;5.38;100.00;97469.28;18283616;32;20076;-63
2022/11/28 09:30:11;;;;;;;12.73;8.73;;;;;;;5.60;100.00;97461.38;18297115;32;20099;-63
2022/11/28 09:40:38;;;;;;;13.07;7.93;;;;;;;5.77;100.00;97472.09;18282781;32;20054;-63
2022/11/28 09:50:43;;;;;;;13.17;6.87;;;;;;;5.96;100.00;97482.59;18290397;32;20508;-63
2022/11/28 10:00:55;;;;;;;14.98;9.95;;;;;;;6.24;100.00;97470.16;18231687;32;20063;-63
2022/11/28 10:11:10;;;;;;;14.40;8.67;;;;;;;6.38;100.00;97459.88;18231675;32;20051;-63
2022/11/28 10:21:16;;;;;;;14.60;8.80;;;;;;;6.58;100.00;97440.53;18231126;32;20062;-63
2022/11/28 10:31:40;;;;;;;14.00;9.20;;;;;;;6.82;100.00;97438.38;18231030;32;20058;-63
2022/11/28 10:42:12;;;;;;;11.10;7.77;;;;;;;7.02;100.00;97421.69;18242196;32;20077;-63
2022/11/28 10:53:01;;;;;;;12.80;8.07;;;;;;;7.46;100.00;97404.59;18242217;32;20088;-63
2022/11/28 11:03:12;;;;;;;15.17;8.73;;;;;;;7.93;100.00;97397.69;18410927;32;20057;-64
2022/11/28 11:13:27;;;;;;;11.83;7.60;;;;;;;8.07;100.00;97396.16;18433139;32;20541;-63
2022/11/28 11:23:30;;;;;;;9.43;6.90;;;;;;;8.18;98.50;97370.09;18432819;32;20112;-63
2022/11/28 11:34:06;;;;;;;10.47;7.67;;;;;;;8.47;99.97;97362.44;18359818;32;20355;-63
2022/11/28 11:44:15;;;;;;;10.83;8.10;;;;;;;8.73;97.40;97357.13;18239196;32;20085;-63
2022/11/28 11:54:19;;;;;;;11.17;7.87;;;;;;;8.57;98.21;97342.00;18248727;32;20058;-63
2022/11/28 12:04:29;;;;;;;10.57;7.10;;;;;;;8.56;97.57;97333.09;18301490;32;20101;-63
2022/11/28 12:14:53;;;;;;;12.53;8.33;;;;;;;8.67;97.27;97325.03;18301230;32;20105;-63
2022/11/28 12:25:39;;;;;;;11.37;7.33;;;;;;;8.82;94.82;97325.06;18300484;32;20105;-64
2022/11/28 12:36:00;;;;;;;13.83;8.97;;;;;;;9.06;95.97;97319.16;18224235;32;20460;-63
2022/11/28 12:46:44;;;;;;;9.43;7.07;;;;;;;9.21;94.41;97313.78;18299683;32;20054;-63
2022/11/28 12:57:09;;;;;;;8.60;7.17;;;;;;;9.19;95.37;97307.03;18274581;32;20445;-63
2022/11/28 13:07:34;;;;;;;8.00;5.78;;;;;;;8.96;95.75;97319.97;18298668;32;20058;-63
2022/11/28 13:17:57;;;;;;;8.20;5.60;;;;;;;8.65;96.27;97317.22;18297862;32;20377;-63
2022/11/28 13:28:21;;;;;;;11.70;7.77;;;;;;;8.74;98.81;97318.34;18297526;32;20438;-63
2022/11/28 13:38:24;;;;;;;9.83;6.60;;;;;;;9.02;98.38;97305.41;18283081;32;20076;-63
2022/11/28 13:48:38;;;;;;;10.23;6.93;;;;;;;9.14;97.96;97305.97;18296630;32;20054;-63
2022/11/28 13:59:02;;;;;;;8.70;5.47;;;;;;;9.14;98.06;97314.06;18295585;32;20050;-64
2022/11/28 14:09:07;;;;;;;10.27;6.57;;;;;;;9.12;98.94;97313.50;18295395;32;20053;-63
2022/11/28 14:19:13;;;;;;;;;;;;;;;8.94;99.37;97332.91;18281916;32;20135;-63
2022/11/28 14:29:33;;;;;;;11.23;7.53;;;;;;;8.66;100.00;97364.66;18295075;32;19950;-63
2022/11/28 14:39:36;;;;;;;11.30;8.03;;;;;;;8.36;100.00;97365.31;18294312;32;20168;-63
2022/11/28 14:49:39;;;;;;;11.80;7.80;;;;;;;8.19;100.00;97370.91;18293831;32;20125;-63
2022/11/28 14:59:43;;;;;;;9.20;6.37;;;;;;;8.06;100.00;97378.37;18292940;32;20084;-63
2022/11/28 15:10:19;;;;;;;8.00;6.13;;;;;;;7.96;100.00;97384.53;18279058;32;20065;-63
2022/11/28 15:20:39;;;;;;;12.90;7.73;;;;;;;7.87;100.00;97385.28;18282319;32;20047;-63
2022/11/28 15:30:49;;;;;;;8.73;6.07;;;;;;;7.76;100.00;97395.16;18303316;32;20073;-63
2022/11/28 15:40:53;;;;;;;10.33;7.13;;;;;;;7.63;100.00;97391.84;18302866;32;20365;-63
2022/11/28 15:50:56;;;;;;;8.82;6.20;;;;;;;7.53;100.00;97396.31;18302264;32;20062;-63
2022/11/28 16:01:13;;;;;;;9.70;6.57;;;;;;;7.42;100.00;97396.22;18287300;32;20050;-63
2022/11/28 16:11:19;;;;;;;10.63;7.03;;;;;;;7.31;100.00;97394.53;18301266;32;20058;-63
2022/11/28 16:21:35;;;;;;;9.90;7.47;;;;;;;7.20;100.00;97401.69;18300861;32;20069;-63
2022/11/28 16:31:38;;;;;;;10.77;8.23;;;;;;;7.13;100.00;97409.16;18299903;32;20053;-63
2022/11/28 16:41:53;;;;;;;14.73;7.97;;;;;;;7.10;100.00;97420.41;18300046;32;20097;-63
2022/11/28 16:52:21;;;;;;;6.40;4.20;;;;;;;7.00;100.00;97421.09;18299338;32;20058;-63
2022/11/28 17:02:25;;;;;;;1.33;0.90;;;;;;;6.93;100.00;97428.56;18298519;32;20114;-63
2022/11/28 17:12:38;;;;;;;0.70;0.40;;;;;;;6.96;100.00;97430.72;18298305;32;20101;-63
2022/11/28 17:22:44;;;;;;;0.80;0.50;;;;;;;7.04;100.00;97434.84;18297749;32;20082;-63
2022/11/28 17:32:47;;;;;;;1.07;0.30;;;;;;;7.10;100.00;97437.34;18297882;32;20072;-63
2022/11/28 17:42:50;;;;;;;0.57;0.20;;;;;;;7.08;100.00;97439.47;18296680;32;20332;-63
2022/11/28 17:52:53;;;;;;;1.27;0.20;;;;;;;7.04;100.00;97438.34;18295853;32;20066;-63
2022/11/28 18:02:56;;;;;;;1.00;0.30;;;;;;;7.02;100.00;97429.75;18296312;32;20050;-63
2022/11/28 18:13:00;;;;;;;1.17;0.30;;;;;;;7.01;100.00;97452.31;18295737;32;20151;-63
2022/11/28 18:23:03;;;;;;;0.37;0.20;;;;;;;6.96;100.00;97449.56;18295072;32;20101;-63
2022/11/28 18:33:05;;;;;;;0.30;0.20;;;;;;;6.87;100.00;97448.41;18281148;32;20080;-63
2022/11/28 18:43:08;;;;;;;0.50;0.20;;;;;;;6.67;100.00;97449.75;18294089;32;20080;-63
2022/11/28 18:53:11;;;;;;;0.10;0.10;;;;;;;6.53;100.00;97441.25;18294041;32;20074;-63
2022/11/28 19:03:14;;;;;;;0.30;0.10;;;;;;;6.46;100.00;97446.00;18304710;32;20331;-63
2022/11/28 19:13:17;;;;;;;0.13;0.10;;;;;;;6.42;100.00;97455.63;18304329;32;20050;-63
2022/11/28 19:23:19;;;;;;;0.47;0.10;;;;;;;6.39;100.00;97459.62;18289957;32;20096;-63
2022/11/28 19:33:22;;;;;;;0.20;0.10;;;;;;;6.36;100.00;97468.19;18289528;32;20043;-63
2022/11/28 19:43:25;;;;;;;0.43;0.17;;;;;;;6.34;100.00;97477.53;18302574;32;20062;-63
2022/11/28 19:53:29;;;;;;;0.03;0.03;;;;;;;6.31;100.00;97478.84;18301825;32;20091;-63
2022/11/28 20:03:33;;;;;;;0.80;0.40;;;;;;;6.30;100.00;97479.88;18301749;32;20050;-63
2022/11/28 20:13:36;;;;;;;2.30;0.47;;;;;;;6.27;100.00;97496.50;18300138;32;20090;-63
2022/11/28 20:23:50;;;;;;;0.50;0.30;;;;;;;6.17;100.00;97493.69;18300684;32;20107;-63
2022/11/28 20:33:53;;;;;;;0.50;0.20;;;;;;;6.16;100.00;97492.84;18300338;32;20072;-63
2022/11/28 20:43:59;;;;;;;0.80;0.20;;;;;;;6.28;100.00;97509.69;18300062;32;20379;-63
2022/11/28 20:54:03;;;;;;;0.67;0.33;;;;;;;6.49;100.00;97522.59;18285563;32;20058;-63
2022/11/28 21:04:07;;;;;;;0.63;0.20;;;;;;;6.66;100.00;97527.91;18285008;32;20054;-63
2022/11/28 21:14:10;;;;;;;0.80;0.30;;;;;;;6.64;100.00;97525.50;18284343;32;20069;-63
2022/11/28 21:24:13;;;;;;;2.23;0.60;;;;;;;6.41;100.00;97530.03;18297215;32;20084;-63
2022/11/28 21:34:17;;;;;;;0.77;0.40;;;;;;;6.38;100.00;97527.00;18283699;32;20437;-63
2022/11/28 21:44:21;;;;;;;2.05;0.40;;;;;;;6.35;100.00;97522.94;18297163;32;20080;-63
2022/11/28 21:54:24;;;;;;;2.43;0.40;;;;;;;6.24;100.00;97513.12;18295923;32;20046;-63
2022/11/28 22:04:27;;;;;;;2.90;1.00;;;;;;;6.00;100.00;97524.03;18296023;32;20053;-63
2022/11/28 22:14:30;;;;;;;2.67;0.90;;;;;;;5.72;100.00;97517.63;18295603;32;20077;-63
2022/11/28 22:24:38;;;;;;;2.17;0.70;;;;;;;5.46;100.00;97516.37;18294841;32;20050;-63
2022/11/28 22:34:41;;;;;;;3.23;0.90;;;;;;;5.16;100.00;97519.28;18293804;32;20069;-63
2022/11/28 22:44:45;;;;;;;4.40;1.07;;;;;;;4.99;100.00;97522.72;18280318;32;20046;-63
2022/11/28 22:54:49;;;;;;;3.80;1.13;;;;;;;5.01;100.00;97531.31;18293959;32;20043;-63
2022/11/28 23:04:52;;;;;;;2.50;0.90;;;;;;;5.11;100.00;97532.59;18293501;32;20483;-63
2022/11/28 23:14:54;;;;;;;2.27;0.77;;;;;;;5.19;100.00;97537.56;18293248;32;20076;-63
2022/11/28 23:24:57;;;;;;;1.83;0.60;;;;;;;5.31;100.00;97540.22;18292564;32;20049;-63
2022/11/28 23:35:00;;;;;;;3.23;0.50;;;;;;;5.43;100.00;97528.38;18292483;32;20483;-63
2022/11/28 23:45:03;;;;;;;2.67;0.93;;;;;;;5.54;100.00;97531.25;18298747;32;20046;-63
2022/11/28 23:55:06;;;;;;;2.83;0.90;;;;;;;5.62;100.00;97536.22;18302029;32;20054;-63
